sensor_id;sensor_type;location;lat;lon;timestamp;temperature;humidity
40249;DHT22;25969;49.970;11.062;2022-07-18T04:23:42;17.20;49.00
40249;DHT22;25969;49.970;11.062;2022-07-18T04:33:43;17.00;51.60
40249;DHT22;25969;49.970;11.062;2022-07-18T04:43:44;16.90;50.50
40249;DHT22;25969;49.970;11.062;2022-07-18T04:53:44;17.10;53.00
40249;DHT22;25969;49.970;11.062;2022-07-18T05:03:45;16.90;52.40
40249;DHT22;25969;49.970;11.062;2022-07-18T05:13:46;16.90;53.10
40249;DHT22;25969;49.970;11.062;2022-07-18T05:23:46;16.80;53.00
40249;DHT22;25969;49.970;11.062;2022-07-18T05:33:47;17.20;54.10
40249;DHT22;25969;49.970;11.062;2022-07-18T05:43:48;17.50;54.40
40249;DHT22;25969;49.970;11.062;2022-07-18T05:53:49;17.80;52.00
40249;DHT22;25969;49.970;11.062;2022-07-18T06:03:50;18.20;52.80
40249;DHT22;25969;49.970;11.062;2022-07-18T06:13:51;18.60;49.80
40249;DHT22;25969;49.970;11.062;2022-07-18T06:23:52;19.20;48.30
40249;DHT22;25969;49.970;11.062;2022-07-18T06:33:52;20.00;46.80
40249;DHT22;25969;49.970;11.062;2022-07-18T06:43:53;20.80;46.60
40249;DHT22;25969;49.970;11.062;2022-07-18T06:53:54;21.60;44.50
40249;DHT22;25969;49.970;11.062;2022-07-18T07:03:55;22.30;43.30
40249;DHT22;25969;49.970;11.062;2022-07-18T07:13:56;22.80;41.50
40249;DHT22;25969;49.970;11.062;2022-07-18T07:23:57;23.50;40.30
40249;DHT22;25969;49.970;11.062;2022-07-18T07:33:57;24.40;40.80
40249;DHT22;25969;49.970;11.062;2022-07-18T07:43:58;24.70;38.90
40249;DHT22;25969;49.970;11.062;2022-07-18T07:53:59;25.00;37.10
40249;DHT22;25969;49.970;11.062;2022-07-18T08:04:00;25.50;37.80
40249;DHT22;25969;49.970;11.062;2022-07-18T08:14:01;25.80;37.10
40249;DHT22;25969;49.970;11.062;2022-07-18T08:24:02;26.30;36.10
40249;DHT22;25969;49.970;11.062;2022-07-18T08:34:03;26.70;35.40
40249;DHT22;25969;49.970;11.062;2022-07-18T08:44:04;27.20;34.30
40249;DHT22;25969;49.970;11.062;2022-07-18T08:54:06;28.00;32.70
40249;DHT22;25969;49.970;11.062;2022-07-18T09:04:06;28.30;32.30
40249;DHT22;25969;49.970;11.062;2022-07-18T09:14:34;28.90;30.60
40249;DHT22;25969;49.970;11.062;2022-07-18T09:25:00;29.00;30.20
40249;DHT22;25969;49.970;11.062;2022-07-18T09:35:31;30.10;28.70
40249;DHT22;25969;49.970;11.062;2022-07-18T09:45:33;31.10;28.50
40249;DHT22;25969;49.970;11.062;2022-07-18T09:55:34;31.70;28.10
40249;DHT22;25969;49.970;11.062;2022-07-18T10:05:37;32.40;28.10
40249;DHT22;25969;49.970;11.062;2022-07-18T10:15:40;32.10;27.70
40249;DHT22;25969;49.970;11.062;2022-07-18T10:25:42;31.80;28.10
40249;DHT22;25969;49.970;11.062;2022-07-18T10:46:05;32.80;27.70
40249;DHT22;25969;49.970;11.062;2022-07-18T10:56:06;33.40;26.90
40249;DHT22;25969;49.970;11.062;2022-07-18T11:06:07;33.60;26.30
40249;DHT22;25969;49.970;11.062;2022-07-18T11:16:23;33.00;26.20
40249;DHT22;25969;49.970;11.062;2022-07-18T11:26:25;32.00;26.40
40249;DHT22;25969;49.970;11.062;2022-07-18T11:36:30;32.10;26.00
40249;DHT22;25969;49.970;11.062;2022-07-18T11:46:31;31.80;26.20
40249;DHT22;25969;49.970;11.062;2022-07-18T11:56:32;32.80;26.40
40249;DHT22;25969;49.970;11.062;2022-07-18T12:06:33;33.80;25.70
40249;DHT22;25969;49.970;11.062;2022-07-18T12:16:37;33.70;24.20
40249;DHT22;25969;49.970;11.062;2022-07-18T12:26:38;35.10;24.60
40249;DHT22;25969;49.970;11.062;2022-07-18T12:36:56;36.50;24.00
40249;DHT22;25969;49.970;11.062;2022-07-18T12:46:58;40.30;21.50
40249;DHT22;25969;49.970;11.062;2022-07-18T12:56:58;42.70;20.60
40249;DHT22;25969;49.970;11.062;2022-07-18T13:06:59;42.60;20.40
40249;DHT22;25969;49.970;11.062;2022-07-18T13:17:00;41.60;20.60
40249;DHT22;25969;49.970;11.062;2022-07-18T13:27:01;40.80;20.90
40249;DHT22;25969;49.970;11.062;2022-07-18T13:37:01;39.60;21.60
40249;DHT22;25969;49.970;11.062;2022-07-18T13:47:02;38.10;22.70
40249;DHT22;25969;49.970;11.062;2022-07-18T13:57:03;37.60;22.60
40249;DHT22;25969;49.970;11.062;2022-07-18T14:07:04;36.30;22.90
40249;DHT22;25969;49.970;11.062;2022-07-18T14:17:07;35.60;23.30
40249;DHT22;25969;49.970;11.062;2022-07-18T14:27:07;36.00;24.50
40249;DHT22;25969;49.970;11.062;2022-07-18T14:37:08;35.50;23.70
40249;DHT22;25969;49.970;11.062;2022-07-18T14:47:09;35.20;23.60
40249;DHT22;25969;49.970;11.062;2022-07-18T14:57:10;36.00;24.00
40249;DHT22;25969;49.970;11.062;2022-07-18T15:07:11;35.10;24.10
40249;DHT22;25969;49.970;11.062;2022-07-18T15:17:12;34.50;24.50
40249;DHT22;25969;49.970;11.062;2022-07-18T15:27:13;33.80;25.40
40249;DHT22;25969;49.970;11.062;2022-07-18T15:37:13;33.50;25.70
40249;DHT22;25969;49.970;11.062;2022-07-18T15:47:14;33.90;25.70
40249;DHT22;25969;49.970;11.062;2022-07-18T15:57:15;34.00;25.70
40249;DHT22;25969;49.970;11.062;2022-07-18T16:07:16;33.80;25.90
40249;DHT22;25969;49.970;11.062;2022-07-18T16:17:16;32.80;27.70
40249;DHT22;25969;49.970;11.062;2022-07-18T16:27:17;32.40;28.50
40249;DHT22;25969;49.970;11.062;2022-07-18T16:37:18;32.30;27.50
40249;DHT22;25969;49.970;11.062;2022-07-18T16:47:19;31.70;32.70
40249;DHT22;25969;49.970;11.062;2022-07-18T16:57:20;31.10;34.00
40249;DHT22;25969;49.970;11.062;2022-07-18T17:07:23;30.50;38.60
40249;DHT22;25969;49.970;11.062;2022-07-18T17:17:24;30.00;36.80
40249;DHT22;25969;49.970;11.062;2022-07-18T17:27:25;31.10;30.10
40249;DHT22;25969;49.970;11.062;2022-07-18T17:37:26;31.80;28.90
40249;DHT22;25969;49.970;11.062;2022-07-18T17:47:27;31.30;35.80
40249;DHT22;25969;49.970;11.062;2022-07-18T17:57:32;29.70;38.70
40249;DHT22;25969;49.970;11.062;2022-07-18T18:07:34;28.70;40.80
40249;DHT22;25969;49.970;11.062;2022-07-18T18:17:35;28.20;41.10
40249;DHT22;25969;49.970;11.062;2022-07-18T18:27:36;27.90;41.80
40249;DHT22;25969;49.970;11.062;2022-07-18T18:37:39;27.60;40.20
40249;DHT22;25969;49.970;11.062;2022-07-18T18:47:39;27.30;40.80
40249;DHT22;25969;49.970;11.062;2022-07-18T18:57:41;26.50;42.50
40249;DHT22;25969;49.970;11.062;2022-07-18T19:07:42;25.70;43.30
40249;DHT22;25969;49.970;11.062;2022-07-18T19:17:43;25.00;44.00
40249;DHT22;25969;49.970;11.062;2022-07-18T19:27:43;24.30;44.50
40249;DHT22;25969;49.970;11.062;2022-07-18T19:37:45;23.70;44.80
40249;DHT22;25969;49.970;11.062;2022-07-18T19:47:46;23.30;45.00
40249;DHT22;25969;49.970;11.062;2022-07-18T19:57:47;22.90;45.60
40249;DHT22;25969;49.970;11.062;2022-07-18T20:07:47;22.70;46.30
40249;DHT22;25969;49.970;11.062;2022-07-18T20:17:49;22.50;45.80
40249;DHT22;25969;49.970;11.062;2022-07-18T20:27:51;22.30;45.90
40249;DHT22;25969;49.970;11.062;2022-07-18T20:37:53;22.20;46.50
40249;DHT22;25969;49.970;11.062;2022-07-18T20:47:56;21.70;48.40
40249;DHT22;25969;49.970;11.062;2022-07-18T20:57:57;21.50;48.80
40249;DHT22;25969;49.970;11.062;2022-07-18T21:07:57;21.30;48.10
40249;DHT22;25969;49.970;11.062;2022-07-18T21:17:58;21.20;49.20
40249;DHT22;25969;49.970;11.062;2022-07-18T21:27:59;20.90;50.60
40249;DHT22;25969;49.970;11.062;2022-07-18T21:38:00;20.70;51.10
40249;DHT22;25969;49.970;11.062;2022-07-18T21:48:01;20.80;51.00
40249;DHT22;25969;49.970;11.062;2022-07-18T21:58:01;20.80;51.20
